createdAt,value
2022-10-08T00:00:00.864Z,66.34
2022-10-08T00:02:32.059Z,65.81
2022-10-08T00:05:01.763Z,66.75
2022-10-08T00:07:31.963Z,66.24
2022-10-08T00:10:01.732Z,66.51
2022-10-08T00:12:31.462Z,66.51
2022-10-08T00:15:01.526Z,67.39
2022-10-08T00:17:31.277Z,66.41
2022-10-08T00:20:01.369Z,67.06
2022-10-08T00:22:31.104Z,66.84
2022-10-08T00:25:00.835Z,66.63
2022-10-08T00:27:30.588Z,66.24
2022-10-08T00:30:00.076Z,66.90
2022-10-08T00:32:29.877Z,66.58
2022-10-08T00:34:59.605Z,67.01
2022-10-08T00:37:29.637Z,67.01
2022-10-08T00:39:59.409Z,66.97
2022-10-08T00:42:29.166Z,66.60
2022-10-08T00:45:01.142Z,67.16
2022-10-08T00:47:36.846Z,67.02
2022-10-08T00:50:28.831Z,67.18
2022-10-08T00:53:04.541Z,67.24
2022-10-08T00:55:34.909Z,67.24
2022-10-08T00:58:14.733Z,67.37
2022-10-08T01:00:44.904Z,66.76
2022-10-08T01:03:15.034Z,66.42
2022-10-08T01:05:47.821Z,66.96
2022-10-08T01:08:26.393Z,67.03
2022-10-08T01:11:14.085Z,66.48
2022-10-08T01:13:49.811Z,67.38
2022-10-08T01:16:33.929Z,68.10
2022-10-08T01:19:18.675Z,68.37
2022-10-08T01:22:03.271Z,70.18
2022-10-08T01:24:56.470Z,70.45
2022-10-08T01:27:29.751Z,70.69
2022-10-08T01:30:05.714Z,72.13
2022-10-08T01:32:40.905Z,72.98
2022-10-08T01:35:16.529Z,72.33
2022-10-08T01:37:48.003Z,73.25
2022-10-08T01:40:20.854Z,72.97
2022-10-08T01:42:52.705Z,73.36
2022-10-08T01:45:25.554Z,74.52
2022-10-08T01:47:56.968Z,74.80
2022-10-08T01:50:29.786Z,75.41
2022-10-08T01:53:02.623Z,75.41
2022-10-08T01:55:43.803Z,75.43
2022-10-08T01:58:21.640Z,74.55
2022-10-08T02:00:54.038Z,75.39
2022-10-08T02:03:23.926Z,75.24
2022-10-08T02:05:55.592Z,76.02
2022-10-08T02:08:25.348Z,76.70
2022-10-08T02:10:55.202Z,76.03
2022-10-08T02:13:25.210Z,75.91
2022-10-08T02:16:11.236Z,76.81
2022-10-08T02:18:52.139Z,76.75
2022-10-08T02:21:24.902Z,76.80
2022-10-08T02:24:15.682Z,77.45
2022-10-08T02:26:51.872Z,76.80
2022-10-08T02:29:24.679Z,76.59
2022-10-08T02:31:59.891Z,76.80
2022-10-08T02:34:38.129Z,77.12
2022-10-08T02:37:22.504Z,77.01
2022-10-08T02:39:55.251Z,77.18
2022-10-08T02:42:27.619Z,76.92
2022-10-08T02:45:03.795Z,76.50
2022-10-08T02:47:37.723Z,76.65
2022-10-08T02:50:17.744Z,76.65
2022-10-08T02:56:14.497Z,77.44
2022-10-08T02:58:46.040Z,78.26
2022-10-08T03:01:26.670Z,77.52
2022-10-08T03:03:59.292Z,77.56
2022-10-08T03:06:30.999Z,77.64
2022-10-08T03:09:02.497Z,77.79
2022-10-08T03:11:32.696Z,77.91
2022-10-08T03:14:05.572Z,78.57
2022-10-08T03:16:41.644Z,77.93
2022-10-08T03:19:14.267Z,78.16
2022-10-08T03:21:46.390Z,78.49
2022-10-08T03:24:16.460Z,77.97
2022-10-08T03:26:46.526Z,79.08
2022-10-08T03:29:16.551Z,78.51
2022-10-08T03:31:47.930Z,78.60
2022-10-08T03:34:17.751Z,77.93
2022-10-08T03:36:47.480Z,78.10
2022-10-08T03:39:17.606Z,78.46
2022-10-08T03:41:47.343Z,78.60
2022-10-08T03:44:16.939Z,79.59
2022-10-08T03:46:46.705Z,79.88
2022-10-08T03:49:16.547Z,81.04
2022-10-08T03:51:46.303Z,81.04
2022-10-08T03:54:16.085Z,80.12
2022-10-08T03:56:45.885Z,79.95
2022-10-08T03:59:15.640Z,79.95
2022-10-08T04:01:45.425Z,80.39
2022-10-08T04:04:14.940Z,80.87
2022-10-08T04:06:44.729Z,80.36
2022-10-08T04:09:14.291Z,81.08
2022-10-08T04:11:44.007Z,80.27
2022-10-08T04:14:13.752Z,80.77
2022-10-08T04:16:43.505Z,81.37
2022-10-08T04:19:13.890Z,81.69
2022-10-08T04:21:43.998Z,81.71
2022-10-08T04:24:13.831Z,80.94
2022-10-08T04:26:43.583Z,81.94
2022-10-08T04:29:13.216Z,81.69
2022-10-08T04:31:42.964Z,83.00
2022-10-08T04:34:13.053Z,81.98
2022-10-08T04:36:42.782Z,81.74
2022-10-08T04:39:12.563Z,82.26
2022-10-08T04:41:42.376Z,81.89
2022-10-08T04:44:11.839Z,81.65
2022-10-08T04:46:41.591Z,81.73
2022-10-08T04:49:11.914Z,81.07
2022-10-08T04:51:41.721Z,80.89
2022-10-08T04:54:13.920Z,81.51
2022-10-08T04:56:43.762Z,81.82
2022-10-08T04:59:13.516Z,81.87
2022-10-08T05:01:43.311Z,83.05
2022-10-08T05:04:13.094Z,83.29
2022-10-08T05:06:42.817Z,81.85
2022-10-08T05:09:12.547Z,83.42
2022-10-08T05:11:42.443Z,83.51
2022-10-08T05:14:11.913Z,83.76
2022-10-08T05:16:41.668Z,83.99
2022-10-08T05:19:11.115Z,83.75
2022-10-08T05:21:40.857Z,84.50
2022-10-08T05:24:12.686Z,84.30
2022-10-08T05:26:59.075Z,84.79
2022-10-08T05:29:13.852Z,84.88
2022-10-08T05:31:43.595Z,84.88
2022-10-08T05:34:14.914Z,83.92
2022-10-08T05:36:45.069Z,83.59
2022-10-08T05:39:15.297Z,84.14
2022-10-08T05:41:45.010Z,84.14
2022-10-08T05:44:14.936Z,83.39
2022-10-08T05:46:44.891Z,83.75
2022-10-08T05:49:22.940Z,83.08
2022-10-08T05:51:53.052Z,83.08
2022-10-08T05:54:22.832Z,83.00
2022-10-08T05:56:52.752Z,83.35
2022-10-08T05:59:24.735Z,83.40
2022-10-08T06:01:54.479Z,83.39
2022-10-08T06:04:24.419Z,83.39
2022-10-08T06:06:54.514Z,83.29
2022-10-08T06:09:24.582Z,83.31
2022-10-08T06:11:54.332Z,83.52
2022-10-08T06:14:24.679Z,83.06
2022-10-08T06:16:54.438Z,82.83
2022-10-08T06:19:24.188Z,83.47
2022-10-08T06:21:54.301Z,83.38
2022-10-08T06:24:24.212Z,82.69
2022-10-08T06:26:53.974Z,83.18
2022-10-08T06:29:23.718Z,83.06
2022-10-08T06:31:54.015Z,83.11
2022-10-08T06:34:24.233Z,82.81
2022-10-08T06:36:53.987Z,83.29
2022-10-08T06:39:23.757Z,83.44
2022-10-08T06:41:53.509Z,83.10
2022-10-08T06:44:23.232Z,83.31
2022-10-08T06:46:53.058Z,82.85
2022-10-08T06:49:24.532Z,83.67
2022-10-08T06:51:54.314Z,83.44
2022-10-08T06:54:25.976Z,83.58
2022-10-08T06:56:55.761Z,83.04
2022-10-08T06:59:25.527Z,82.46
2022-10-08T07:01:55.317Z,82.26
2022-10-08T07:04:24.813Z,81.72
2022-10-08T07:06:54.627Z,81.55
2022-10-08T07:09:24.881Z,80.61
2022-10-08T07:11:54.926Z,80.92
2022-10-08T07:14:24.445Z,80.70
2022-10-08T07:16:54.264Z,79.77
2022-10-08T07:19:25.081Z,78.71
2022-10-08T07:21:59.026Z,78.10
2022-10-08T07:24:25.829Z,77.46
2022-10-08T07:26:55.598Z,77.25
2022-10-08T07:29:26.234Z,76.85
2022-10-08T07:31:56.003Z,76.85
2022-10-08T07:34:27.104Z,75.81
2022-10-08T07:36:57.042Z,75.36
2022-10-08T07:39:27.581Z,75.75
2022-10-08T07:41:57.338Z,75.63
2022-10-08T07:44:27.528Z,75.77
2022-10-08T07:46:57.592Z,74.97
2022-10-08T07:49:27.196Z,74.01
2022-10-08T07:51:56.934Z,74.74
2022-10-08T07:54:26.421Z,74.43
2022-10-08T07:56:56.466Z,73.99
2022-10-08T07:59:26.291Z,72.84
2022-10-08T08:01:56.178Z,72.43
2022-10-08T08:04:26.290Z,72.86
2022-10-08T08:06:56.121Z,72.19
2022-10-08T08:09:26.009Z,72.33
2022-10-08T08:11:56.051Z,71.83
2022-10-08T08:14:25.816Z,71.67
2022-10-08T08:16:55.641Z,71.30
2022-10-08T08:19:27.260Z,71.85
2022-10-08T08:21:56.992Z,71.10
2022-10-08T08:24:26.488Z,71.00
2022-10-08T08:26:57.793Z,70.55
2022-10-08T08:29:27.657Z,71.03
2022-10-08T08:31:57.503Z,70.66
2022-10-08T08:34:27.517Z,69.96
2022-10-08T08:36:59.085Z,69.04
2022-10-08T08:39:30.865Z,69.52
2022-10-08T08:42:15.527Z,68.85
2022-10-08T08:44:51.423Z,69.04
2022-10-08T08:47:23.910Z,67.71
2022-10-08T08:49:59.080Z,67.21
2022-10-08T08:52:33.810Z,66.80
2022-10-08T08:55:05.401Z,66.22
2022-10-08T08:57:40.771Z,66.40
2022-10-08T09:00:18.149Z,65.68
2022-10-08T09:02:56.909Z,64.05
2022-10-08T09:05:30.721Z,62.31
2022-10-08T09:08:09.536Z,63.21
2022-10-08T09:10:50.940Z,60.97
2022-10-08T09:13:23.702Z,60.97
2022-10-08T09:15:55.870Z,60.73
2022-10-08T09:18:25.951Z,61.22
2022-10-08T09:20:55.697Z,61.39
2022-10-08T09:23:27.249Z,59.54
2022-10-08T09:26:03.012Z,60.02
2022-10-08T09:28:41.464Z,58.14
2022-10-08T09:31:35.163Z,57.27
2022-10-08T09:34:17.574Z,56.77
2022-10-08T09:37:08.252Z,56.00
2022-10-08T09:39:38.715Z,56.09
2022-10-08T09:42:18.269Z,56.45
2022-10-08T09:44:50.128Z,55.91
2022-10-08T09:47:22.398Z,57.27
2022-10-08T09:50:10.052Z,56.33
2022-10-08T09:52:42.060Z,55.25
2022-10-08T09:55:20.452Z,54.49
2022-10-08T09:57:53.246Z,53.77
2022-10-08T10:00:28.358Z,52.95
2022-10-08T10:02:59.327Z,51.69
2022-10-08T10:05:31.985Z,51.97
2022-10-08T10:08:02.190Z,52.55
2022-10-08T10:10:45.039Z,51.58
2022-10-08T10:13:20.718Z,50.50
2022-10-08T10:16:11.274Z,50.50
2022-10-08T10:18:46.509Z,50.97
2022-10-08T10:21:19.201Z,51.87
2022-10-08T10:23:57.705Z,52.33
2022-10-08T10:26:30.509Z,52.79
2022-10-08T10:29:15.252Z,52.63
2022-10-08T10:31:54.019Z,51.88
2022-10-08T10:34:32.153Z,51.91
2022-10-08T10:37:04.779Z,50.29
2022-10-08T10:39:49.223Z,50.58
2022-10-08T10:42:33.757Z,49.35
2022-10-08T10:45:24.247Z,49.78
2022-10-08T10:47:55.544Z,49.95
2022-10-08T10:50:39.452Z,48.32
2022-10-08T10:53:28.872Z,47.62
2022-10-08T10:56:10.597Z,48.08
2022-10-08T10:58:49.342Z,46.99
2022-10-08T11:01:30.783Z,47.30
2022-10-08T11:04:21.266Z,47.68
2022-10-08T11:06:54.039Z,47.66
2022-10-08T11:09:35.376Z,46.64
2022-10-08T11:12:35.997Z,48.46
2022-10-08T11:15:12.804Z,48.05
2022-10-08T11:18:04.810Z,48.16
2022-10-08T11:20:55.448Z,48.21
2022-10-08T11:23:42.978Z,47.83
2022-10-08T11:26:36.266Z,49.26
2022-10-08T11:29:09.753Z,50.18
2022-10-08T11:31:48.612Z,49.59
2022-10-08T11:34:37.826Z,49.97
2022-10-08T11:37:19.314Z,49.30
2022-10-08T11:40:23.349Z,50.08
2022-10-08T11:43:02.069Z,50.11
2022-10-08T11:45:34.609Z,50.72
2022-10-08T11:51:25.749Z,51.14
2022-10-08T11:54:04.598Z,50.74
2022-10-08T11:56:37.298Z,49.99
2022-10-08T11:59:26.470Z,49.84
2022-10-08T12:01:59.390Z,48.94
2022-10-08T12:04:32.276Z,49.07
2022-10-08T12:07:07.962Z,49.81
2022-10-08T12:09:59.222Z,49.47
2022-10-08T12:12:48.387Z,49.76
2022-10-08T12:15:31.460Z,49.74
2022-10-08T12:18:09.749Z,49.29
2022-10-08T12:20:42.312Z,49.21
2022-10-08T12:23:23.588Z,49.51
2022-10-08T12:26:06.579Z,50.07
2022-10-08T12:28:45.933Z,50.50
2022-10-08T12:31:30.900Z,50.88
2022-10-08T12:34:06.224Z,49.03
2022-10-08T12:36:47.646Z,49.03
2022-10-08T12:39:23.025Z,48.57
2022-10-08T12:41:58.418Z,45.77
2022-10-08T12:44:34.497Z,45.70
2022-10-08T12:47:25.126Z,45.88
2022-10-08T12:50:15.425Z,46.07
2022-10-08T12:52:45.387Z,45.04
2022-10-08T12:55:18.167Z,43.96
2022-10-08T12:57:49.893Z,43.86
2022-10-08T13:00:25.455Z,42.74
2022-10-08T13:03:09.929Z,42.82
2022-10-08T13:05:43.159Z,44.18
2022-10-08T13:08:32.404Z,43.86
2022-10-08T13:11:13.843Z,44.53
2022-10-08T13:13:50.982Z,44.53
2022-10-08T13:16:26.526Z,44.30
2022-10-08T13:19:00.036Z,44.98
2022-10-08T13:21:38.298Z,44.68
2022-10-08T13:24:16.364Z,44.64
2022-10-08T13:26:54.798Z,45.16
2022-10-08T13:29:27.629Z,44.11
2022-10-08T13:32:18.245Z,42.38
2022-10-08T13:34:57.363Z,42.22
2022-10-08T13:37:30.165Z,41.86
2022-10-08T13:40:15.116Z,42.42
2022-10-08T13:42:48.341Z,42.08
2022-10-08T13:45:25.984Z,42.85
2022-10-08T13:47:55.847Z,42.65
2022-10-08T13:50:25.718Z,43.28
2022-10-08T13:52:57.893Z,43.43
2022-10-08T13:55:30.460Z,42.10
2022-10-08T13:58:02.157Z,41.64
2022-10-08T14:00:34.196Z,41.35
2022-10-08T14:03:04.725Z,40.96
2022-10-08T14:05:39.393Z,41.32
2022-10-08T14:08:22.478Z,41.32
2022-10-08T14:10:54.567Z,40.71
2022-10-08T14:13:24.562Z,40.71
2022-10-08T14:15:54.652Z,40.28
2022-10-08T14:18:24.364Z,38.67
2022-10-08T14:20:54.362Z,37.44
2022-10-08T14:23:24.095Z,37.12
2022-10-08T14:25:53.879Z,36.91
2022-10-08T14:28:23.585Z,38.07
2022-10-08T14:30:53.385Z,38.83
2022-10-08T14:33:23.129Z,39.61
2022-10-08T14:35:53.949Z,39.21
2022-10-08T14:38:24.560Z,39.26
2022-10-08T14:40:54.000Z,40.38
2022-10-08T14:43:27.525Z,40.96
2022-10-08T14:45:55.229Z,40.91
2022-10-08T14:48:24.802Z,41.62
2022-10-08T14:50:56.026Z,42.25
2022-10-08T14:53:26.665Z,42.26
2022-10-08T14:56:11.634Z,42.46
2022-10-08T14:58:29.230Z,42.92
2022-10-08T15:00:59.288Z,42.80
2022-10-08T15:03:29.069Z,42.70
2022-10-08T15:06:00.781Z,42.44
2022-10-08T15:08:30.494Z,41.89
2022-10-08T15:11:03.397Z,43.00
2022-10-08T15:13:33.331Z,43.36
2022-10-08T15:16:03.195Z,43.67
2022-10-08T15:18:33.073Z,43.90
2022-10-08T15:21:02.791Z,44.21
2022-10-08T15:23:32.989Z,43.65
2022-10-08T15:26:05.349Z,44.36
2022-10-08T15:28:39.214Z,43.61
2022-10-08T15:31:14.501Z,43.63
2022-10-08T15:33:49.925Z,44.26
2022-10-08T15:36:30.424Z,44.23
2022-10-08T15:39:10.536Z,44.54
2022-10-08T15:41:42.984Z,44.83
2022-10-08T15:44:24.245Z,45.89
2022-10-08T15:47:02.625Z,46.21
2022-10-08T15:49:34.538Z,46.12
2022-10-08T15:52:06.484Z,46.63
2022-10-08T15:54:44.152Z,47.20
2022-10-08T15:57:16.064Z,47.43
2022-10-08T15:59:46.076Z,47.33
2022-10-08T16:02:17.780Z,47.48
2022-10-08T16:04:48.782Z,47.50
2022-10-08T16:07:18.804Z,47.75
2022-10-08T16:09:48.589Z,47.36
2022-10-08T16:12:18.033Z,47.54
2022-10-08T16:14:47.847Z,47.35
2022-10-08T16:17:17.586Z,47.41
2022-10-08T16:19:47.322Z,48.04
2022-10-08T16:22:16.775Z,48.68
2022-10-08T16:24:46.785Z,49.11
2022-10-08T16:27:16.524Z,49.11
2022-10-08T16:29:46.543Z,49.40
2022-10-08T16:32:16.267Z,50.09
2022-10-08T16:34:51.292Z,50.83
2022-10-08T16:37:19.111Z,50.83
2022-10-08T16:39:49.025Z,50.60
2022-10-08T16:42:18.465Z,50.51
2022-10-08T16:44:48.628Z,51.64
2022-10-08T16:47:18.651Z,52.44
2022-10-08T16:49:48.679Z,52.21
2022-10-08T16:52:18.409Z,52.39
2022-10-08T16:54:54.423Z,52.44
2022-10-08T16:57:22.492Z,53.07
2022-10-08T16:59:52.236Z,53.15
2022-10-08T17:02:25.842Z,53.45
2022-10-08T17:04:53.138Z,54.04
2022-10-08T17:07:22.620Z,54.60
2022-10-08T17:09:53.522Z,54.29
2022-10-08T17:12:23.264Z,55.08
2022-10-08T17:14:52.993Z,55.10
2022-10-08T17:17:22.784Z,55.10
2022-10-08T17:19:52.248Z,55.31
2022-10-08T17:22:21.756Z,55.91
2022-10-08T17:24:51.845Z,55.81
2022-10-08T17:27:21.605Z,56.05
2022-10-08T17:29:51.389Z,56.47
2022-10-08T17:32:20.819Z,56.17
2022-10-08T17:34:50.551Z,56.14
2022-10-08T17:37:20.545Z,56.82
2022-10-08T17:39:50.263Z,56.72
2022-10-08T17:42:20.012Z,57.28
2022-10-08T17:44:49.722Z,57.27
2022-10-08T17:47:19.748Z,56.96
2022-10-08T17:49:49.486Z,57.90
2022-10-08T17:52:20.024Z,57.70
2022-10-08T17:54:49.542Z,58.56
2022-10-08T17:57:19.283Z,58.52
2022-10-08T17:59:49.014Z,58.32
2022-10-08T18:02:18.816Z,58.59
2022-10-08T18:04:48.866Z,59.11
2022-10-08T18:07:18.607Z,59.11
2022-10-08T18:09:49.910Z,59.56
2022-10-08T18:12:19.735Z,59.32
2022-10-08T18:14:49.681Z,59.07
2022-10-08T18:17:19.442Z,59.25
2022-10-08T18:19:49.183Z,59.95
2022-10-08T18:22:20.555Z,59.68
2022-10-08T18:24:50.884Z,59.42
2022-10-08T18:27:20.614Z,60.85
2022-10-08T18:29:50.343Z,60.47
2022-10-08T18:32:19.952Z,60.12
2022-10-08T18:34:50.739Z,60.49
2022-10-08T18:37:20.621Z,60.92
2022-10-08T18:39:50.352Z,61.43
2022-10-08T18:42:20.138Z,61.18
2022-10-08T18:44:49.879Z,62.18
2022-10-08T18:47:19.907Z,61.67
2022-10-08T18:49:49.642Z,62.04
2022-10-08T18:52:21.530Z,62.00
2022-10-08T18:54:50.802Z,62.54
2022-10-08T18:57:20.819Z,61.68
2022-10-08T18:59:50.859Z,62.29
2022-10-08T19:02:20.743Z,62.56
2022-10-08T19:04:51.102Z,63.08
2022-10-08T19:07:20.563Z,63.08
2022-10-08T19:09:50.454Z,64.69
2022-10-08T19:12:20.178Z,64.26
2022-10-08T19:14:49.916Z,64.36
2022-10-08T19:17:19.933Z,64.34
2022-10-08T19:19:50.159Z,63.94
2022-10-08T19:22:19.612Z,64.43
2022-10-08T19:24:50.004Z,64.67
2022-10-08T19:27:19.468Z,65.21
2022-10-08T19:29:49.231Z,64.33
2022-10-08T19:32:19.037Z,64.35
2022-10-08T19:34:48.782Z,64.43
2022-10-08T19:37:18.487Z,64.12
2022-10-08T19:39:49.075Z,64.70
2022-10-08T19:42:18.797Z,64.43
2022-10-08T19:44:48.537Z,64.52
2022-10-08T19:47:19.923Z,64.79
2022-10-08T19:49:49.828Z,64.70
2022-10-08T19:52:19.570Z,64.72
2022-10-08T19:54:49.327Z,64.99
2022-10-08T19:57:19.373Z,65.04
2022-10-08T19:59:49.156Z,64.78
2022-10-08T20:02:19.003Z,64.71
2022-10-08T20:04:48.725Z,64.66
2022-10-08T20:07:18.486Z,65.05
2022-10-08T20:09:48.240Z,65.01
2022-10-08T20:12:17.932Z,64.80
2022-10-08T20:14:49.227Z,65.08
2022-10-08T20:17:19.265Z,65.62
2022-10-08T20:19:48.739Z,65.64
2022-10-08T20:22:18.192Z,66.04
2022-10-08T20:24:48.229Z,66.15
2022-10-08T20:27:17.963Z,65.67
2022-10-08T20:29:48.148Z,65.97
2022-10-08T20:32:17.907Z,65.97
2022-10-08T20:34:47.652Z,66.44
2022-10-08T20:37:17.472Z,67.43
2022-10-08T20:39:47.500Z,67.75
2022-10-08T20:42:17.509Z,67.72
2022-10-08T20:44:47.544Z,69.06
2022-10-08T20:47:17.348Z,69.03
2022-10-08T20:49:47.375Z,68.68
2022-10-08T20:52:16.856Z,68.47
2022-10-08T20:54:46.873Z,68.04
2022-10-08T20:57:16.624Z,68.41
2022-10-08T20:59:46.384Z,68.08
2022-10-08T21:02:19.599Z,67.75
2022-10-08T21:04:47.879Z,67.78
2022-10-08T21:07:17.927Z,68.05
2022-10-08T21:09:48.619Z,68.29
2022-10-08T21:12:18.068Z,68.54
2022-10-08T21:14:47.804Z,68.54
2022-10-08T21:17:17.561Z,68.54
2022-10-08T21:19:47.594Z,68.40
2022-10-08T21:22:17.210Z,67.72
2022-10-08T21:24:46.441Z,68.18
2022-10-08T21:27:16.226Z,68.54
2022-10-08T21:29:45.977Z,68.56
2022-10-08T21:32:16.760Z,68.94
2022-10-08T21:34:46.533Z,68.43
2022-10-08T21:37:16.263Z,68.42
2022-10-08T21:39:46.306Z,68.83
2022-10-08T21:42:16.495Z,68.58
2022-10-08T21:44:46.240Z,69.23
2022-10-08T21:47:16.010Z,69.41
2022-10-08T21:49:45.588Z,68.95
2022-10-08T21:52:16.393Z,69.50
2022-10-08T21:54:46.175Z,68.81
2022-10-08T21:57:16.539Z,68.89
2022-10-08T21:59:46.368Z,69.06
2022-10-08T22:02:16.187Z,69.83
2022-10-08T22:04:45.659Z,69.71
2022-10-08T22:07:15.394Z,69.35
2022-10-08T22:09:45.437Z,69.35
2022-10-08T22:12:14.889Z,69.26
2022-10-08T22:14:44.935Z,68.57
2022-10-08T22:17:14.683Z,69.46
2022-10-08T22:19:44.454Z,70.77
2022-10-08T22:22:16.071Z,71.00
2022-10-08T22:24:47.509Z,70.45
2022-10-08T22:27:17.251Z,70.12
2022-10-08T22:29:46.703Z,69.95
2022-10-08T22:32:17.131Z,69.78
2022-10-08T22:34:47.166Z,69.40
2022-10-08T22:37:17.199Z,70.11
2022-10-08T22:39:46.985Z,69.84
2022-10-08T22:42:16.728Z,70.11
2022-10-08T22:44:46.756Z,70.33
2022-10-08T22:47:16.801Z,70.51
2022-10-08T22:49:46.536Z,70.51
2022-10-08T22:52:16.850Z,70.20
2022-10-08T22:54:46.595Z,70.12
2022-10-08T22:57:16.329Z,70.25
2022-10-08T22:59:46.364Z,70.62
2022-10-08T23:02:16.195Z,70.25
2022-10-08T23:04:46.282Z,70.45
2022-10-08T23:07:16.008Z,70.72
2022-10-08T23:09:46.039Z,70.72
2022-10-08T23:12:16.721Z,70.67
2022-10-08T23:14:46.738Z,70.31
2022-10-08T23:17:16.554Z,70.34
2022-10-08T23:19:46.584Z,70.35
2022-10-08T23:22:16.338Z,70.17
2022-10-08T23:24:46.377Z,70.22
2022-10-08T23:27:16.120Z,70.41
2022-10-08T23:29:46.152Z,70.88
2022-10-08T23:32:15.946Z,70.75
2022-10-08T23:34:45.702Z,70.64
2022-10-08T23:37:15.414Z,70.95
2022-10-08T23:39:45.449Z,70.60
2022-10-08T23:42:14.880Z,70.66
2022-10-08T23:44:44.611Z,71.17
2022-10-08T23:47:14.715Z,71.13
2022-10-08T23:49:45.916Z,71.13
2022-10-08T23:52:16.230Z,71.84
2022-10-08T23:57:35.010Z,71.49
